createdAt,value
2023-05-10T04:42:21.582Z,100311.06
2023-05-10T04:45:24.568Z,100311.47
2023-05-10T04:48:30.693Z,100306.59
2023-05-10T04:51:33.916Z,100313.53
2023-05-10T04:54:36.706Z,100313.50
2023-05-10T04:57:40.279Z,100301.56
2023-05-10T05:00:43.384Z,100315.13
2023-05-10T05:03:46.437Z,100316.97
2023-05-10T05:06:49.446Z,100318.66
2023-05-10T05:09:53.372Z,100312.97
2023-05-10T05:12:57.156Z,100316.84
2023-05-10T05:16:17.819Z,100315.13
2023-05-10T05:19:23.886Z,100326.22
2023-05-10T05:22:30.282Z,100312.53
2023-05-10T05:25:39.214Z,100320.62
2023-05-10T05:28:42.621Z,100320.88
2023-05-10T05:32:05.755Z,100322.22
2023-05-10T05:35:09.558Z,100330.69
2023-05-10T05:38:12.569Z,100315.63
2023-05-10T05:41:19.117Z,100327.31
2023-05-10T05:44:24.754Z,100327.91
2023-05-10T05:47:29.959Z,100326.69
2023-05-10T05:50:33.084Z,100333.78
2023-05-10T05:53:47.347Z,100329.72
2023-05-10T05:57:01.672Z,100338.94
2023-05-10T06:00:09.946Z,100346.16
2023-05-10T06:03:23.832Z,100340.53
2023-05-10T06:06:46.957Z,100353.62
2023-05-10T06:10:10.659Z,100350.13
2023-05-10T06:13:22.323Z,100358.75
2023-05-10T06:16:45.900Z,100354.41
2023-05-10T06:19:51.627Z,100358.25
2023-05-10T06:23:00.046Z,100360.72
2023-05-10T06:26:32.817Z,100353.19
2023-05-10T06:30:09.269Z,100347.03
2023-05-10T06:33:17.039Z,100350.25
2023-05-10T06:36:20.060Z,100339.38
2023-05-10T06:39:22.709Z,100348.72
2023-05-10T06:42:26.482Z,100361.47
2023-05-10T06:45:29.148Z,100361.47
2023-05-10T06:48:35.169Z,100364.59
2023-05-10T06:51:39.273Z,100357.34
2023-05-10T06:55:04.668Z,100357.91
2023-05-10T06:58:07.685Z,100362.66
2023-05-10T07:01:11.181Z,100349.00
2023-05-10T07:04:17.057Z,100358.75
2023-05-10T07:07:20.403Z,100360.94
2023-05-10T07:10:24.218Z,100351.75
2023-05-10T07:13:32.497Z,100359.19
2023-05-10T07:16:35.759Z,100358.25
2023-05-10T07:19:39.035Z,100358.72
2023-05-10T07:22:41.815Z,100352.22
2023-05-10T07:25:52.984Z,100359.50
2023-05-10T07:28:55.698Z,100353.88
2023-05-10T07:32:01.356Z,100353.03
2023-05-10T07:35:04.567Z,100357.03
2023-05-10T07:38:12.226Z,100348.59
2023-05-10T07:41:14.889Z,100341.91
2023-05-10T07:44:20.150Z,100352.97
2023-05-10T07:47:24.504Z,100361.72
2023-05-10T07:50:31.125Z,100358.56
2023-05-10T07:53:33.825Z,100356.66
2023-05-10T07:56:37.278Z,100349.31
2023-05-10T07:59:43.994Z,100353.44
2023-05-10T08:02:48.255Z,100354.75
2023-05-10T08:05:51.340Z,100349.41
2023-05-10T08:08:55.148Z,100341.81
2023-05-10T08:12:18.674Z,100352.13
2023-05-10T08:15:22.054Z,100344.94
2023-05-10T08:18:25.045Z,100350.06
2023-05-10T08:21:27.776Z,100351.38
2023-05-10T08:24:50.758Z,100341.66
2023-05-10T08:27:54.891Z,100329.88
2023-05-10T08:30:58.443Z,100331.25
2023-05-10T08:34:04.945Z,100341.09
2023-05-10T10:57:41.307Z,100273.31
2023-05-10T11:00:46.529Z,100269.47
2023-05-10T11:04:09.412Z,100261.13
2023-05-10T11:07:21.401Z,100245.47
2023-05-10T11:10:29.844Z,100247.88
2023-05-10T11:13:44.096Z,100253.06
2023-05-10T11:16:46.741Z,100246.97
2023-05-10T11:20:10.642Z,100250.97
2023-05-10T11:23:18.769Z,100239.47
2023-05-10T11:26:24.309Z,100251.75
2023-05-10T11:29:27.671Z,100249.53
2023-05-10T11:32:31.363Z,100246.22
2023-05-10T11:35:43.326Z,100235.81
2023-05-10T11:38:47.961Z,100236.81
2023-05-10T11:41:51.031Z,100237.69
2023-05-10T11:44:54.688Z,100228.69
2023-05-10T11:48:02.187Z,100224.72
2023-05-10T11:51:05.896Z,100230.00
2023-05-10T11:54:12.376Z,100228.34
2023-05-10T11:57:16.539Z,100222.28
2023-05-10T12:00:19.925Z,100211.69
2023-05-10T12:03:23.325Z,100226.19
2023-05-10T12:06:41.463Z,100231.22
2023-05-10T12:09:46.012Z,100213.56
2023-05-10T12:12:53.925Z,100220.63
2023-05-10T12:16:00.469Z,100219.50
2023-05-10T12:19:24.120Z,100216.16
2023-05-10T12:22:27.266Z,100208.06
2023-05-10T12:25:37.913Z,100215.53
2023-05-10T12:28:40.913Z,100204.75
2023-05-10T12:32:00.663Z,100203.53
2023-05-10T12:35:05.056Z,100200.66
2023-05-10T12:38:30.602Z,100203.31
2023-05-10T12:41:34.841Z,100197.31
2023-05-10T12:44:39.340Z,100196.22
2023-05-10T12:47:44.068Z,100175.47
2023-05-10T12:50:49.305Z,100190.44
2023-05-10T12:53:52.276Z,100193.13
2023-05-10T13:08:02.143Z,100169.47
2023-05-10T13:11:25.446Z,100165.03
2023-05-10T13:14:29.151Z,100156.00
2023-05-10T13:17:34.174Z,100149.13
2023-05-10T13:20:41.355Z,100152.28
2023-05-10T13:23:49.490Z,100145.56
2023-05-10T13:26:54.451Z,100150.78
2023-05-10T13:30:17.963Z,100144.66
2023-05-10T13:33:41.867Z,100153.41
2023-05-10T13:36:48.345Z,100148.25
2023-05-10T13:39:51.084Z,100144.06
2023-05-10T13:42:54.822Z,100151.81
2023-05-10T13:45:57.860Z,100142.06
2023-05-10T13:49:05.266Z,100140.72
2023-05-10T13:52:08.396Z,100135.63
2023-05-10T13:55:14.464Z,100129.34
2023-05-10T13:58:17.388Z,100126.75
2023-05-10T14:01:20.968Z,100121.03
2023-05-10T14:04:44.745Z,100117.75
2023-05-10T14:07:47.808Z,100113.50
2023-05-10T14:10:53.319Z,100119.69
2023-05-10T14:13:56.250Z,100115.25
2023-05-10T14:17:00.323Z,100098.00
2023-05-10T14:20:03.636Z,100103.53
2023-05-10T14:23:06.966Z,100108.94
2023-05-10T14:26:10.249Z,100106.75
2023-05-10T14:29:13.235Z,100102.47
2023-05-10T14:32:16.186Z,100104.16
2023-05-10T14:35:20.204Z,100113.16
2023-05-10T14:38:23.186Z,100099.94
2023-05-10T14:41:26.341Z,100096.12
2023-05-10T14:44:33.154Z,100084.41
2023-05-10T14:47:37.556Z,100096.12
2023-05-10T14:50:40.726Z,100089.59
2023-05-10T14:54:08.299Z,100086.19
2023-05-10T14:57:10.920Z,100089.59
2023-05-10T15:00:36.625Z,100085.75
2023-05-10T15:04:00.233Z,100079.94
2023-05-10T15:07:20.157Z,100086.94
2023-05-10T15:10:23.273Z,100093.00
2023-05-10T15:13:46.228Z,100092.13
2023-05-10T15:16:48.979Z,100086.25
2023-05-10T15:19:52.608Z,100092.78
2023-05-10T15:23:16.457Z,100074.56
2023-05-10T15:26:39.665Z,100091.22
2023-05-10T15:29:42.613Z,100097.19
2023-05-10T15:33:02.672Z,100098.09
2023-05-10T15:36:05.705Z,100086.31
2023-05-10T15:39:10.251Z,100084.59
2023-05-10T15:42:13.153Z,100077.41
2023-05-10T15:45:16.889Z,100072.47
2023-05-10T15:48:19.732Z,100074.78
2023-05-10T15:51:25.608Z,100080.31
2023-05-10T15:54:51.935Z,100081.91
2023-05-10T15:57:54.860Z,100077.66
2023-05-10T16:01:17.819Z,100079.72
2023-05-10T16:04:21.738Z,100074.25
2023-05-10T16:07:25.475Z,100073.66
2023-05-10T16:10:34.746Z,100068.94
2023-05-10T16:13:38.103Z,100078.63
2023-05-10T16:16:42.169Z,100076.88
2023-05-10T16:19:45.065Z,100078.69
2023-05-10T16:22:48.312Z,100075.41
2023-05-10T16:25:52.036Z,100077.22
2023-05-10T16:28:55.114Z,100074.69
2023-05-10T16:32:03.572Z,100080.41
2023-05-10T16:35:07.980Z,100075.03
2023-05-10T16:38:31.071Z,100087.00
2023-05-10T16:41:36.817Z,100087.44
2023-05-10T16:44:40.356Z,100080.16
2023-05-10T16:47:43.466Z,100083.53
2023-05-10T16:50:46.666Z,100081.13
2023-05-10T16:53:50.210Z,100087.53
2023-05-10T16:56:55.491Z,100082.38
2023-05-10T16:59:58.856Z,100087.66
2023-05-10T17:03:01.787Z,100096.00
2023-05-10T17:06:06.135Z,100099.19
2023-05-10T17:09:14.628Z,100098.56
2023-05-10T17:12:18.058Z,100098.31
2023-05-10T17:15:21.110Z,100102.09
2023-05-10T17:18:24.361Z,100099.72
2023-05-10T17:21:30.016Z,100098.84
2023-05-10T17:24:33.839Z,100105.16
2023-05-10T17:27:37.732Z,100113.00
2023-05-10T17:30:40.798Z,100107.56
2023-05-10T17:33:45.085Z,100111.44
2023-05-10T17:36:48.785Z,100108.75
2023-05-10T17:39:51.928Z,100120.06
2023-05-10T17:42:55.982Z,100119.97
2023-05-10T17:46:01.470Z,100114.87
2023-05-10T17:49:05.616Z,100115.25
2023-05-10T17:52:08.801Z,100125.63
2023-05-10T17:55:13.412Z,100123.88
2023-05-10T17:58:16.166Z,100122.78
2023-05-10T18:01:21.466Z,100131.34
2023-05-10T18:04:26.093Z,100129.44
2023-05-10T18:07:30.413Z,100130.72
2023-05-10T18:10:38.179Z,100129.31
2023-05-10T18:13:42.874Z,100132.50
2023-05-10T18:16:46.122Z,100130.94
2023-05-10T18:19:49.985Z,100130.59
2023-05-10T18:22:53.248Z,100138.81
2023-05-10T18:25:56.641Z,100139.44
2023-05-10T18:29:01.666Z,100141.00
2023-05-10T18:32:05.626Z,100142.25
2023-05-10T18:35:09.495Z,100145.84
2023-05-10T18:38:23.248Z,100150.34
2023-05-10T18:41:26.983Z,100153.16
2023-05-10T18:44:31.217Z,100152.31
2023-05-10T18:47:35.150Z,100157.47
2023-05-10T18:50:38.222Z,100157.69
2023-05-10T18:53:41.780Z,100158.91
2023-05-10T18:56:45.538Z,100163.84
2023-05-10T18:59:58.058Z,100166.72
2023-05-10T19:03:01.256Z,100169.34
2023-05-10T19:06:04.865Z,100174.72
2023-05-10T19:09:09.843Z,100178.78
2023-05-10T19:12:17.480Z,100177.97
2023-05-10T19:15:22.004Z,100185.31
2023-05-10T19:18:28.234Z,100190.66
2023-05-10T19:21:32.550Z,100192.25
2023-05-10T19:24:45.189Z,100187.84
2023-05-10T19:28:10.230Z,100190.66
2023-05-10T19:31:14.530Z,100184.09
2023-05-10T19:34:17.848Z,100194.81
2023-05-10T19:37:21.783Z,100192.13
2023-05-10T19:40:25.298Z,100191.31
2023-05-10T19:43:32.178Z,100186.13
2023-05-10T19:46:37.053Z,100185.16
2023-05-10T19:49:40.457Z,100191.81
2023-05-10T19:52:43.641Z,100182.38
2023-05-10T19:55:47.632Z,100190.41
2023-05-10T19:58:55.434Z,100183.34
2023-05-10T20:01:58.778Z,100195.94
2023-05-10T20:05:02.468Z,100190.00
2023-05-10T20:08:09.176Z,100192.63
2023-05-10T20:11:12.519Z,100190.22
2023-05-10T20:14:35.177Z,100201.38
2023-05-10T20:17:38.575Z,100196.75
2023-05-10T20:20:41.383Z,100197.09
2023-05-10T20:23:45.107Z,100192.16
2023-05-10T20:26:59.052Z,100195.16
2023-05-10T20:30:02.261Z,100197.03
2023-05-10T20:33:05.992Z,100197.38
2023-05-10T20:36:09.701Z,100194.53
2023-05-10T20:39:12.841Z,100195.06
2023-05-10T20:42:16.541Z,100195.84
2023-05-10T20:45:20.442Z,100196.37
2023-05-10T20:48:29.499Z,100198.56
2023-05-10T20:51:33.327Z,100197.75
2023-05-10T20:54:36.464Z,100202.44
2023-05-10T20:57:41.504Z,100204.72
2023-05-10T21:01:04.577Z,100212.66
2023-05-10T21:04:07.206Z,100199.97
2023-05-10T21:07:10.760Z,100201.53
2023-05-10T21:10:16.741Z,100200.25
2023-05-10T21:13:20.156Z,100190.00
2023-05-10T21:16:23.138Z,100189.59
2023-05-10T21:19:35.387Z,100191.78
2023-05-10T21:22:38.023Z,100194.00
2023-05-10T21:25:49.094Z,100193.50
2023-05-10T21:28:51.750Z,100202.94
2023-05-10T21:31:55.726Z,100199.25
2023-05-10T21:34:58.421Z,100207.28
2023-05-10T21:38:01.446Z,100196.78
2023-05-10T21:41:08.055Z,100206.09
2023-05-10T21:44:11.592Z,100202.13
2023-05-10T21:47:14.304Z,100198.88
2023-05-10T21:50:17.826Z,100206.81
2023-05-10T21:53:20.714Z,100206.00
2023-05-10T21:56:43.799Z,100199.66
2023-05-10T21:59:54.979Z,100201.25
2023-05-10T22:03:07.429Z,100200.75
2023-05-10T22:06:10.757Z,100205.31
2023-05-10T22:09:13.752Z,100206.91
2023-05-10T22:12:17.003Z,100209.97
2023-05-10T22:15:19.703Z,100208.09
2023-05-10T22:18:23.006Z,100201.34
2023-05-10T22:21:25.810Z,100209.97
2023-05-10T22:24:32.672Z,100208.28
2023-05-10T22:27:35.435Z,100216.50
2023-05-10T22:30:43.310Z,100215.62
2023-05-10T22:33:46.051Z,100210.63
2023-05-10T22:36:50.707Z,100215.72
2023-05-10T22:39:53.730Z,100219.19
2023-05-10T22:42:56.851Z,100218.28
2023-05-10T22:45:59.650Z,100214.81
2023-05-10T22:49:02.629Z,100211.03
2023-05-10T22:52:05.760Z,100209.97
2023-05-10T22:55:16.985Z,100217.09
2023-05-10T22:58:19.648Z,100216.72
2023-05-10T23:01:24.319Z,100209.69
2023-05-10T23:04:26.982Z,100215.03
2023-05-10T23:07:38.202Z,100221.56
2023-05-10T23:10:40.864Z,100217.22
2023-05-10T23:13:48.808Z,100204.06
2023-05-10T23:17:11.372Z,100208.47
2023-05-10T23:20:19.153Z,100209.31
2023-05-10T23:23:22.761Z,100206.41
2023-05-10T23:26:27.519Z,100205.06
2023-05-10T23:29:55.568Z,100208.78
2023-05-10T23:33:08.494Z,100210.19
2023-05-10T23:36:11.220Z,100205.63
2023-05-10T23:39:17.398Z,100206.91
2023-05-10T23:42:20.398Z,100209.06
2023-05-10T23:45:29.685Z,100198.94
2023-05-10T23:48:43.870Z,100206.31
2023-05-10T23:51:51.409Z,100208.16
2023-05-10T23:55:14.552Z,100215.97
2023-05-10T23:58:18.155Z,100214.44
